Time;durP1;ratioP1;P1;durP2;ratioP2;P2;SDS_P1;SDS_P2;PMS_P1;PMS_P2;Temp;Humidity;BMP_temperature;BMP_pressure;BME280_temperature;BME280_humidity;BME280_pressure;Samples;Min_cycle;Max_cycle;Signal;HPM_P1;HPM_P2
2023/08/01 00:01:37;;;;;;;0.10;0.10;;;;;;;18.16;78.55;99979.63;5052261;27;20136;-81
2023/08/01 00:04:03;;;;;;;0.10;0.10;;;;;;;18.16;78.50;99974.25;5048173;27;20029;-81
2023/08/01 00:06:29;;;;;;;0.10;0.10;;;;;;;18.19;78.42;99980.25;5071742;27;20059;-81
2023/08/01 00:08:55;;;;;;;0.10;0.10;;;;;;;18.18;78.46;99973.19;5051602;27;20028;-82
2023/08/01 00:11:22;;;;;;;0.10;0.10;;;;;;;18.20;78.66;99973.06;5096229;27;20537;-82
2023/08/01 00:13:48;;;;;;;0.20;0.20;;;;;;;18.18;78.53;99966.94;5060710;27;20036;-81
2023/08/01 00:16:14;;;;;;;0.10;0.10;;;;;;;18.18;78.41;99966.94;5053244;27;20025;-82
2023/08/01 00:18:40;;;;;;;0.10;0.10;;;;;;;18.15;78.61;99959.97;5055265;27;20025;-84
2023/08/01 00:21:09;;;;;;;0.10;0.10;;;;;;;18.11;78.33;99967.34;5142304;27;20037;-81
2023/08/01 00:23:36;;;;;;;0.10;0.10;;;;;;;18.05;78.37;99962.38;5161667;27;20018;-81
2023/08/01 00:26:02;;;;;;;0.10;0.10;;;;;;;18.08;78.10;99945.25;5057170;27;20076;-82
2023/08/01 00:28:29;;;;;;;0.20;0.20;;;;;;;18.05;77.93;99945.47;5056043;28;20021;-83
2023/08/01 00:31:10;;;;;;;0.00;0.00;;;;;;;18.06;77.69;99940.00;5099837;27;20138;-82
2023/08/01 00:33:37;;;;;;;0.20;0.20;;;;;;;17.95;77.40;99938.00;5063901;27;20032;-81
2023/08/01 00:36:03;;;;;;;0.43;0.43;;;;;;;17.93;77.48;99928.31;5105303;27;20036;-82
2023/08/01 00:38:29;;;;;;;0.10;0.10;;;;;;;17.92;77.40;99921.25;5071617;28;20069;-82
2023/08/01 00:40:55;;;;;;;0.10;0.10;;;;;;;17.90;77.47;99923.16;5067693;28;20032;-82
2023/08/01 00:43:21;;;;;;;0.10;0.10;;;;;;;17.89;77.31;99918.78;5058490;28;20035;-82
2023/08/01 00:45:48;;;;;;;0.10;0.10;;;;;;;17.87;77.15;99915.31;5052514;28;20082;-83
2023/08/01 00:48:14;;;;;;;0.10;0.10;;;;;;;17.82;77.20;99915.63;5058810;28;20029;-83
2023/08/01 00:50:41;;;;;;;0.10;0.10;;;;;;;17.82;77.04;99912.09;5074028;27;20047;-83
2023/08/01 00:53:07;;;;;;;0.10;0.10;;;;;;;17.78;77.09;99909.63;5060500;28;20092;-81
2023/08/01 00:55:34;;;;;;;0.30;0.30;;;;;;;17.73;77.10;99914.41;5050118;28;20165;-81
2023/08/01 00:58:00;;;;;;;0.10;0.10;;;;;;;17.65;76.71;99911.38;5040556;28;20032;-79
2023/08/01 01:00:26;;;;;;;0.10;0.10;;;;;;;17.68;77.01;99911.16;5048619;28;20497;-82
2023/08/01 01:02:52;;;;;;;0.10;0.10;;;;;;;17.67;76.98;99914.81;5054800;28;20048;-82
2023/08/01 01:05:20;;;;;;;0.10;0.10;;;;;;;17.66;76.95;99907.72;5051516;28;20033;-81
2023/08/01 01:07:46;;;;;;;0.10;0.10;;;;;;;17.64;76.88;99909.63;5054100;27;20498;-81
2023/08/01 01:10:12;;;;;;;0.10;0.10;;;;;;;17.61;76.89;99915.22;5056453;27;20025;-82
2023/08/01 01:12:39;;;;;;;0.30;0.30;;;;;;;17.61;76.74;99921.41;5051446;28;20269;-81
2023/08/01 01:15:08;;;;;;;0.10;0.10;;;;;;;17.63;76.89;99919.50;5054792;27;20025;-81
2023/08/01 01:17:34;;;;;;;0.10;0.10;;;;;;;17.55;77.07;99912.94;5091956;27;21137;-81
2023/08/01 01:20:00;;;;;;;0.50;0.50;;;;;;;17.58;76.76;99916.28;5063049;27;20053;-82
2023/08/01 01:22:29;;;;;;;0.68;0.68;;;;;;;17.54;77.14;99914.72;5045399;28;20029;-82
2023/08/01 01:24:56;;;;;;;0.08;0.08;;;;;;;17.56;77.15;99909.28;5055118;28;20052;-82
2023/08/01 01:27:24;;;;;;;0.10;0.10;;;;;;;17.52;77.32;99905.06;5069002;27;20025;-82
2023/08/01 01:29:51;;;;;;;0.10;0.10;;;;;;;17.55;77.48;99905.75;5098123;27;20031;-82
2023/08/01 01:32:18;;;;;;;0.20;0.20;;;;;;;17.57;77.59;99902.94;5056085;28;20395;-83
2023/08/01 01:34:45;;;;;;;1.92;1.67;;;;;;;17.60;77.59;99908.97;5056889;27;20051;-83
2023/08/01 01:37:11;;;;;;;0.10;0.10;;;;;;;17.63;77.72;99902.56;5100173;27;20017;-82
2023/08/01 01:39:37;;;;;;;0.28;0.28;;;;;;;17.63;77.64;99905.25;5103242;27;20029;-83
2023/08/01 01:42:07;;;;;;;1.95;0.85;;;;;;;17.70;78.05;99897.69;5061835;28;20422;-80
2023/08/01 01:44:33;;;;;;;0.10;0.10;;;;;;;17.70;78.33;99897.69;5060105;28;20121;-80
2023/08/01 01:49:32;;;;;;;0.20;0.20;;;;;;;17.77;78.01;99897.19;4949839;29;20054;-81
2023/08/01 01:51:58;;;;;;;0.20;0.20;;;;;;;17.83;78.19;99901.28;4941643;28;20081;-81
2023/08/01 01:54:26;;;;;;;0.30;0.30;;;;;;;17.86;77.78;99892.19;4955664;28;20036;-82
2023/08/01 01:56:52;;;;;;;1.15;1.05;;;;;;;17.80;78.10;99898.78;4943428;29;20031;-82
2023/08/01 01:59:18;;;;;;;0.10;0.10;;;;;;;17.79;77.60;99897.06;4979260;28;20052;-82
2023/08/01 02:01:44;;;;;;;0.55;0.55;;;;;;;17.91;77.58;99898.09;4987462;28;20054;-82
2023/08/01 02:04:10;;;;;;;0.10;0.10;;;;;;;17.92;77.63;99894.47;4945643;29;20028;-82
2023/08/01 02:06:36;;;;;;;0.10;0.10;;;;;;;17.98;77.64;99895.91;4941097;28;20040;-82
2023/08/01 02:09:04;;;;;;;0.10;0.10;;;;;;;18.03;77.38;99889.28;5003444;28;20026;-81
2023/08/01 02:11:30;;;;;;;0.10;0.10;;;;;;;17.95;77.38;99891.59;5026828;28;20061;-82
2023/08/01 02:13:56;;;;;;;0.10;0.10;;;;;;;17.98;77.46;99883.38;4994610;28;20027;-82
2023/08/01 02:16:22;;;;;;;3.35;3.10;;;;;;;18.03;77.45;99883.03;4945216;28;20035;-82
2023/08/01 02:18:48;;;;;;;0.10;0.10;;;;;;;18.08;77.30;99887.16;4929850;28;20031;-79
2023/08/01 02:21:14;;;;;;;0.22;0.22;;;;;;;18.08;77.52;99887.16;4930427;28;20020;-80
2023/08/01 02:23:40;;;;;;;0.10;0.10;;;;;;;18.10;77.11;99884.34;4951504;28;20043;-80
2023/08/01 02:26:08;;;;;;;0.65;0.65;;;;;;;18.04;77.19;99872.22;5006457;28;20467;-81
2023/08/01 02:28:34;;;;;;;0.10;0.10;;;;;;;18.02;76.96;99879.50;4967137;28;20055;-80
2023/08/01 02:31:00;;;;;;;0.10;0.10;;;;;;;18.11;77.03;99875.34;4979117;28;20530;-79
2023/08/01 02:33:26;;;;;;;0.20;0.20;;;;;;;18.17;77.04;99879.44;4955682;28;20074;-80
2023/08/01 02:35:52;;;;;;;0.65;0.65;;;;;;;18.15;77.13;99878.69;4951243;28;20046;-79
2023/08/01 02:38:18;;;;;;;0.10;0.10;;;;;;;18.13;77.17;99875.25;4980272;28;20119;-79
2023/08/01 02:40:44;;;;;;;0.10;0.10;;;;;;;18.18;77.05;99883.84;5007089;28;20041;-80
2023/08/01 02:43:10;;;;;;;0.10;0.10;;;;;;;18.10;77.08;99879.84;4950704;28;20075;-79
2023/08/01 02:45:36;;;;;;;1.77;1.65;;;;;;;18.10;77.03;99884.34;4982255;28;20074;-80
2023/08/01 02:48:02;;;;;;;0.40;0.40;;;;;;;18.18;76.65;99883.84;4984174;28;20057;-81
2023/08/01 02:50:28;;;;;;;0.20;0.20;;;;;;;18.21;77.01;99881.81;4962449;28;20036;-81
2023/08/01 02:52:56;;;;;;;0.10;0.10;;;;;;;18.25;76.92;99879.78;4938456;28;20040;-81
2023/08/01 02:55:22;;;;;;;0.10;0.10;;;;;;;18.21;76.95;99881.81;4996323;28;20063;-82
2023/08/01 02:57:48;;;;;;;0.10;0.10;;;;;;;18.26;76.55;99878.84;5017983;28;20030;-82
2023/08/01 03:00:14;;;;;;;0.10;0.10;;;;;;;18.23;76.56;99874.53;5029459;28;20014;-82
2023/08/01 03:02:40;;;;;;;0.10;0.10;;;;;;;18.19;76.43;99882.88;4945543;28;20032;-82
2023/08/01 03:05:07;;;;;;;0.10;0.10;;;;;;;18.28;76.59;99884.97;5035916;28;20033;-83
2023/08/01 03:07:34;;;;;;;0.10;0.10;;;;;;;18.27;76.27;99888.59;4992699;28;20075;-82
2023/08/01 03:10:00;;;;;;;0.22;0.22;;;;;;;18.31;76.64;99887.41;5015942;28;20031;-83
2023/08/01 03:12:26;;;;;;;1.23;1.13;;;;;;;18.26;76.46;99879.66;4981739;28;20094;-83
2023/08/01 03:14:53;;;;;;;0.28;0.28;;;;;;;18.28;76.59;99893.00;4946496;28;20078;-83
2023/08/01 03:17:19;;;;;;;0.10;0.10;;;;;;;18.30;76.42;99884.84;4967465;28;20045;-82
2023/08/01 03:19:45;;;;;;;0.10;0.10;;;;;;;18.29;76.15;99893.84;4998389;28;20074;-83
2023/08/01 03:22:11;;;;;;;0.10;0.10;;;;;;;18.30;76.45;99880.34;5001465;28;20033;-82
2023/08/01 03:24:37;;;;;;;0.10;0.10;;;;;;;18.29;76.40;99888.50;5011528;28;20037;-81
2023/08/01 03:27:03;;;;;;;0.63;0.63;;;;;;;18.29;76.43;99883.13;4962181;28;20041;-82
2023/08/01 03:29:29;;;;;;;0.10;0.10;;;;;;;18.24;76.68;99891.47;4976651;28;20037;-83
2023/08/01 03:31:56;;;;;;;0.10;0.10;;;;;;;18.27;76.52;99896.63;4975051;28;20048;-82
2023/08/01 03:34:22;;;;;;;0.10;0.10;;;;;;;18.21;76.74;99889.84;4990742;28;20039;-80
2023/08/01 03:36:48;;;;;;;0.40;0.40;;;;;;;18.19;76.93;99897.13;4994106;28;20123;-80
2023/08/01 03:39:14;;;;;;;0.50;0.50;;;;;;;18.30;76.58;99888.38;4970445;28;20540;-80
2023/08/01 03:41:40;;;;;;;0.22;0.22;;;;;;;18.23;76.45;99890.63;4949276;28;20057;-81
2023/08/01 03:44:06;;;;;;;0.20;0.20;;;;;;;18.23;76.66;99905.84;4942256;28;20027;-82
2023/08/01 03:46:33;;;;;;;0.28;0.28;;;;;;;18.20;76.41;99903.38;4943330;28;20040;-81
2023/08/01 03:48:59;;;;;;;0.15;0.15;;;;;;;18.19;76.12;99901.66;4946904;28;20036;-80
2023/08/01 03:51:25;;;;;;;0.10;0.10;;;;;;;18.14;76.68;99901.94;4944576;28;20027;-80
2023/08/01 03:53:51;;;;;;;0.65;0.65;;;;;;;18.16;76.49;99908.06;4944961;28;20048;-81
2023/08/01 03:56:17;;;;;;;0.17;0.17;;;;;;;18.18;76.56;99902.59;4977923;28;20067;-82
2023/08/01 03:58:43;;;;;;;0.10;0.10;;;;;;;18.06;76.67;99899.78;4989196;28;20056;-80
2023/08/01 04:01:09;;;;;;;0.63;0.63;;;;;;;18.08;76.51;99903.22;5023637;28;20025;-81
2023/08/01 04:03:35;;;;;;;0.10;0.10;;;;;;;18.11;76.56;99903.00;4935931;28;20149;-81
2023/08/01 04:06:01;;;;;;;0.73;0.73;;;;;;;18.13;76.82;99904.75;4979624;28;20051;-82
2023/08/01 04:08:27;;;;;;;3.03;0.90;;;;;;;18.08;76.99;99897.88;4935497;28;20470;-83
2023/08/01 04:10:53;;;;;;;0.50;0.50;;;;;;;18.04;77.13;99909.75;4939814;28;20050;-82
2023/08/01 04:13:19;;;;;;;0.55;0.55;;;;;;;17.96;77.39;99906.72;4936542;29;20482;-82
2023/08/01 04:15:46;;;;;;;0.20;0.20;;;;;;;18.00;77.59;99905.53;4957319;28;20031;-80
2023/08/01 04:18:12;;;;;;;4.43;1.88;;;;;;;18.00;77.42;99902.88;4941591;29;20035;-80
2023/08/01 04:20:38;;;;;;;0.25;0.25;;;;;;;18.04;77.67;99901.69;4944545;28;20038;-81
2023/08/01 04:23:04;;;;;;;0.10;0.10;;;;;;;18.03;77.66;99905.38;4947184;28;20043;-80
2023/08/01 04:25:30;;;;;;;0.40;0.40;;;;;;;18.07;77.37;99900.66;4928094;28;20044;-80
2023/08/01 04:27:56;;;;;;;0.22;0.22;;;;;;;18.05;77.52;99907.94;4983379;28;20041;-80
2023/08/01 04:30:22;;;;;;;0.00;0.00;;;;;;;18.02;77.74;99903.63;4978720;28;20174;-82
2023/08/01 04:32:48;;;;;;;1.02;0.90;;;;;;;17.99;77.27;99909.19;4966514;28;20039;-82
2023/08/01 04:35:14;;;;;;;0.10;0.10;;;;;;;17.99;77.40;99900.31;4937269;28;20032;-82
2023/08/01 04:37:40;;;;;;;0.38;0.38;;;;;;;17.95;77.63;99897.81;4953223;28;20032;-81
2023/08/01 04:40:07;;;;;;;0.00;0.00;;;;;;;17.89;77.62;99900.00;4980034;28;20043;-81
2023/08/01 04:42:33;;;;;;;0.10;0.10;;;;;;;17.92;77.54;99899.81;4968953;28;20045;-80
2023/08/01 04:44:59;;;;;;;0.10;0.10;;;;;;;17.89;77.47;99902.69;4970572;28;20059;-82
2023/08/01 04:47:25;;;;;;;0.10;0.10;;;;;;;17.96;77.49;99898.69;4970648;28;20036;-83
2023/08/01 04:49:51;;;;;;;0.00;0.00;;;;;;;17.99;77.15;99902.97;4968887;28;20040;-81
2023/08/01 04:52:17;;;;;;;0.10;0.10;;;;;;;17.92;76.90;99898.00;4956904;28;20032;-82
2023/08/01 04:54:43;;;;;;;0.20;0.20;;;;;;;17.88;76.89;99903.66;4974275;28;20031;-82
2023/08/01 04:57:09;;;;;;;1.75;1.65;;;;;;;17.92;76.63;99902.50;4978019;28;20024;-82
2023/08/01 04:59:35;;;;;;;0.30;0.30;;;;;;;17.95;76.77;99897.81;4938939;29;20091;-82
2023/08/01 05:02:02;;;;;;;0.10;0.10;;;;;;;17.91;76.79;99906.97;5006637;28;20089;-80
2023/08/01 05:04:28;;;;;;;0.15;0.15;;;;;;;17.78;76.57;99906.94;4995732;28;20042;-81
2023/08/01 05:06:54;;;;;;;0.10;0.10;;;;;;;17.87;76.52;99901.91;4961194;28;20051;-82
2023/08/01 05:09:20;;;;;;;0.10;0.10;;;;;;;17.80;76.44;99906.84;4938403;28;20079;-82
2023/08/01 05:11:46;;;;;;;0.47;0.47;;;;;;;17.83;76.47;99912.00;4986400;28;20029;-83
2023/08/01 05:14:12;;;;;;;1.30;0.75;;;;;;;17.85;76.43;99911.91;5013855;28;20039;-82
2023/08/01 05:16:38;;;;;;;0.35;0.35;;;;;;;17.89;76.40;99913.41;4974620;28;20024;-82
2023/08/01 05:19:04;;;;;;;0.00;0.00;;;;;;;17.99;76.19;99914.53;4942435;28;20023;-83
2023/08/01 05:21:30;;;;;;;0.10;0.10;;;;;;;17.82;75.91;99912.97;4943725;28;20045;-83
2023/08/01 05:23:56;;;;;;;0.10;0.10;;;;;;;17.99;75.66;99911.88;4939513;28;20517;-83
2023/08/01 05:26:22;;;;;;;0.08;0.08;;;;;;;17.94;75.39;99914.88;4940902;28;20154;-83
2023/08/01 05:28:48;;;;;;;0.10;0.10;;;;;;;18.01;75.52;99912.63;4969381;28;20063;-82
2023/08/01 05:31:14;;;;;;;0.40;0.40;;;;;;;18.01;75.42;99923.34;4965188;28;20053;-82
2023/08/01 05:33:40;;;;;;;0.10;0.10;;;;;;;17.95;75.36;99921.06;4958993;28;20046;-82
2023/08/01 05:36:06;;;;;;;0.10;0.10;;;;;;;17.93;75.44;99925.63;4945941;28;20039;-81
2023/08/01 05:38:32;;;;;;;0.30;0.30;;;;;;;17.89;75.26;99924.97;4938807;28;20063;-82
2023/08/01 05:40:58;;;;;;;0.03;0.03;;;;;;;17.89;75.30;99918.78;4971921;28;20031;-82
2023/08/01 05:43:24;;;;;;;0.10;0.10;;;;;;;17.87;75.43;99918.00;4971548;28;20052;-82
2023/08/01 05:45:50;;;;;;;0.10;0.10;;;;;;;17.90;75.50;99928.53;4967550;28;20042;-83
2023/08/01 05:48:16;;;;;;;0.10;0.10;;;;;;;17.96;75.36;99936.19;4941910;28;20038;-81
2023/08/01 05:50:42;;;;;;;0.10;0.10;;;;;;;17.91;75.46;99940.97;4952022;28;20039;-81
2023/08/01 05:53:08;;;;;;;0.60;0.60;;;;;;;17.90;75.40;99936.56;4943856;28;20103;-80
2023/08/01 05:55:35;;;;;;;4.38;2.05;;;;;;;17.98;75.17;99936.97;4985743;28;20033;-81
2023/08/01 05:58:01;;;;;;;0.52;0.40;;;;;;;18.07;75.37;99938.19;4957913;28;20027;-81
2023/08/01 06:00:27;;;;;;;0.10;0.10;;;;;;;17.92;74.60;99940.03;4957063;28;20070;-79
2023/08/01 06:02:53;;;;;;;0.10;0.10;;;;;;;18.06;74.63;99937.31;4966503;28;20040;-80
2023/08/01 06:05:19;;;;;;;0.10;0.10;;;;;;;18.09;74.78;99931.75;4972603;28;20124;-82
2023/08/01 06:07:45;;;;;;;3.75;0.80;;;;;;;18.09;74.50;99937.13;4947330;28;20769;-82
2023/08/01 06:10:11;;;;;;;0.15;0.15;;;;;;;18.11;74.13;99935.19;4964173;28;20017;-81
2023/08/01 06:12:37;;;;;;;0.40;0.40;;;;;;;18.20;74.48;99943.59;4945918;28;20054;-81
2023/08/01 06:15:05;;;;;;;0.10;0.10;;;;;;;18.16;74.06;99936.72;4956797;28;20158;-79
2023/08/01 06:17:31;;;;;;;0.10;0.10;;;;;;;18.17;74.32;99941.97;4947157;28;20027;-82
2023/08/01 06:19:57;;;;;;;0.85;0.85;;;;;;;18.19;74.04;99941.84;4971665;28;20182;-84
2023/08/01 06:22:23;;;;;;;0.10;0.10;;;;;;;18.23;73.23;99943.38;4941084;28;20043;-80
2023/08/01 06:24:49;;;;;;;0.10;0.10;;;;;;;18.41;73.89;99947.50;4981424;28;20066;-81
2023/08/01 06:27:15;;;;;;;0.10;0.10;;;;;;;18.46;73.36;99947.19;5043521;28;20096;-81
2023/08/01 06:29:41;;;;;;;0.10;0.10;;;;;;;18.46;73.40;99957.09;5011890;28;20078;-81
2023/08/01 06:32:07;;;;;;;3.55;1.80;;;;;;;18.68;73.38;99951.09;4968886;28;20036;-81
2023/08/01 06:34:33;;;;;;;2.72;2.05;;;;;;;18.76;72.05;99951.44;4958784;28;20044;-81
2023/08/01 06:36:59;;;;;;;0.20;0.20;;;;;;;18.84;71.38;99942.84;4958652;28;20055;-81
2023/08/01 06:39:25;;;;;;;0.10;0.10;;;;;;;18.84;70.95;99937.50;5012212;28;20052;-82
2023/08/01 06:41:51;;;;;;;0.10;0.10;;;;;;;18.79;71.07;99958.41;5042777;28;20041;-82
2023/08/01 06:44:17;;;;;;;0.20;0.20;;;;;;;18.93;70.70;99958.38;5032238;28;20054;-79
2023/08/01 06:46:43;;;;;;;0.40;0.40;;;;;;;18.95;70.25;99960.94;4951255;28;20036;-79
2023/08/01 06:49:09;;;;;;;0.10;0.10;;;;;;;18.98;69.66;99955.34;4943591;29;20077;-81
2023/08/01 06:51:35;;;;;;;0.45;0.45;;;;;;;19.04;69.88;99945.06;4946133;28;20040;-81
2023/08/01 06:54:01;;;;;;;0.57;0.57;;;;;;;19.08;70.35;99943.88;4946128;28;20031;-82
2023/08/01 06:56:27;;;;;;;0.10;0.10;;;;;;;18.94;70.02;99968.16;4953330;29;20047;-82
2023/08/01 06:58:53;;;;;;;0.10;0.10;;;;;;;18.88;70.41;99965.84;4950420;28;20035;-81
2023/08/01 07:01:19;;;;;;;0.10;0.10;;;;;;;18.91;70.72;99965.66;5044718;28;20100;-82
2023/08/01 07:03:45;;;;;;;0.10;0.10;;;;;;;18.72;71.03;99972.25;5043751;28;20081;-82
2023/08/01 07:06:12;;;;;;;0.10;0.10;;;;;;;18.66;71.34;99972.66;5019038;28;20060;-81
2023/08/01 07:08:38;;;;;;;1.55;1.45;;;;;;;18.75;71.54;99972.06;5042150;28;20133;-80
2023/08/01 07:11:04;;;;;;;0.28;0.28;;;;;;;18.82;71.60;99987.75;5041490;28;20045;-83
2023/08/01 07:13:30;;;;;;;0.20;0.20;;;;;;;18.86;71.35;99982.03;5009423;28;20118;-83
2023/08/01 07:15:56;;;;;;;0.10;0.10;;;;;;;18.78;70.68;99989.78;5008486;28;20487;-82
2023/08/01 07:18:22;;;;;;;0.10;0.10;;;;;;;18.95;71.00;99980.59;5040312;28;20022;-82
2023/08/01 07:20:48;;;;;;;0.10;0.10;;;;;;;18.97;70.30;99972.44;5023815;28;20043;-81
2023/08/01 07:23:14;;;;;;;0.10;0.10;;;;;;;19.10;69.84;99965.22;4944942;29;20039;-84
2023/08/01 07:25:40;;;;;;;0.10;0.10;;;;;;;19.19;69.09;99969.09;4949909;28;20027;-82
2023/08/01 07:28:06;;;;;;;0.70;0.50;;;;;;;19.21;68.25;99967.19;4960914;28;20029;-80
2023/08/01 07:30:32;;;;;;;1.85;0.75;;;;;;;19.40;68.32;99972.97;5021308;28;20038;-82
2023/08/01 07:32:58;;;;;;;0.10;0.10;;;;;;;19.44;68.10;99983.47;5025925;28;20109;-83
2023/08/01 07:35:24;;;;;;;0.55;0.55;;;;;;;19.21;66.30;99981.44;5028178;28;20057;-81
2023/08/01 07:37:50;;;;;;;0.08;0.08;;;;;;;19.45;66.40;99979.84;5017288;28;20021;-83
2023/08/01 07:40:16;;;;;;;0.10;0.10;;;;;;;19.34;65.80;99978.78;4945335;28;20034;-83
2023/08/01 07:42:42;;;;;;;0.30;0.30;;;;;;;19.40;66.07;99978.34;4945241;28;20054;-82
2023/08/01 07:45:09;;;;;;;0.20;0.20;;;;;;;19.53;65.54;99988.22;4960979;28;20504;-81
2023/08/01 07:47:35;;;;;;;0.10;0.10;;;;;;;19.58;65.86;99986.06;5009602;28;20119;-81
2023/08/01 07:50:01;;;;;;;0.10;0.10;;;;;;;19.61;65.54;100006.47;5034742;28;20040;-83
2023/08/01 07:52:27;;;;;;;0.30;0.30;;;;;;;19.47;63.78;99994.03;5023947;28;20044;-83
2023/08/01 07:54:55;;;;;;;0.10;0.10;;;;;;;19.69;64.38;99986.16;5020303;28;20525;-83
2023/08/01 07:57:21;;;;;;;0.10;0.10;;;;;;;19.79;63.66;99991.72;5034684;28;20048;-81
2023/08/01 07:59:47;;;;;;;0.28;0.28;;;;;;;19.94;63.72;99992.47;5034613;28;20416;-81
2023/08/01 08:02:13;;;;;;;0.00;0.00;;;;;;;20.04;63.37;99998.88;5035282;28;20048;-80
2023/08/01 08:04:39;;;;;;;0.10;0.10;;;;;;;20.06;63.06;99997.91;5023621;28;20407;-82
2023/08/01 08:07:06;;;;;;;0.10;0.10;;;;;;;20.10;63.33;99985.94;5003222;28;21467;-82
2023/08/01 08:09:32;;;;;;;0.10;0.10;;;;;;;20.11;62.92;100001.13;4980258;28;20046;-81
2023/08/01 08:11:58;;;;;;;0.03;0.03;;;;;;;20.26;63.26;100004.50;5025815;28;20072;-81
2023/08/01 08:14:24;;;;;;;0.10;0.10;;;;;;;20.03;61.16;100004.38;4977020;28;20028;-81
2023/08/01 08:16:51;;;;;;;0.10;0.10;;;;;;;20.00;60.94;100008.16;5024456;28;20029;-80
2023/08/01 08:19:17;;;;;;;0.10;0.10;;;;;;;19.88;60.18;100014.41;4973635;28;20063;-81
2023/08/01 08:21:43;;;;;;;0.08;0.08;;;;;;;19.93;61.13;100014.09;4978286;28;20098;-83
2023/08/01 08:24:09;;;;;;;0.17;0.17;;;;;;;20.12;61.63;100002.84;4953223;28;20056;-78
2023/08/01 08:26:37;;;;;;;0.10;0.10;;;;;;;20.24;61.26;100007.31;4994478;28;20037;-82
2023/08/01 08:29:04;;;;;;;0.10;0.10;;;;;;;20.40;61.93;100008.84;5036980;28;20052;-82
2023/08/01 08:31:31;;;;;;;0.10;0.10;;;;;;;20.39;61.26;100007.13;5006879;28;20028;-84
2023/08/01 08:33:57;;;;;;;0.10;0.10;;;;;;;20.43;60.19;100014.03;4952072;28;20050;-84
2023/08/01 08:36:23;;;;;;;0.10;0.10;;;;;;;20.25;58.99;100005.47;4979540;28;20033;-82
2023/08/01 08:38:50;;;;;;;0.40;0.40;;;;;;;20.47;59.36;100020.88;5035362;28;20045;-82
2023/08/01 08:41:22;;;;;;;0.10;0.10;;;;;;;20.50;59.00;100010.75;5035079;28;20477;-80
2023/08/01 08:43:49;;;;;;;0.10;0.10;;;;;;;20.56;59.53;100011.25;5035733;28;20501;-83
2023/08/01 08:46:18;;;;;;;0.10;0.10;;;;;;;20.52;59.77;100021.38;4946430;28;20024;-79
2023/08/01 08:48:46;;;;;;;0.15;0.15;;;;;;;20.50;60.35;100020.66;4934207;28;20577;-81
2023/08/01 08:51:12;;;;;;;0.00;0.00;;;;;;;20.58;60.78;100018.25;4935691;28;20038;-80
2023/08/01 08:53:42;;;;;;;0.00;0.00;;;;;;;20.53;60.07;100025.81;4937193;29;20059;-80
2023/08/01 08:56:16;;;;;;;0.10;0.10;;;;;;;20.33;59.70;100049.66;4938650;28;20073;-81
2023/08/01 08:58:42;;;;;;;0.00;0.00;;;;;;;20.10;59.94;100032.53;4942867;29;20023;-81
2023/08/01 09:01:09;;;;;;;0.03;0.03;;;;;;;19.94;59.60;100035.47;4949592;28;20020;-81
2023/08/01 09:03:36;;;;;;;0.10;0.10;;;;;;;19.95;60.27;100036.31;4957554;28;20100;-80
2023/08/01 09:06:08;;;;;;;0.00;0.00;;;;;;;19.87;60.35;100039.56;4943894;28;20027;-82
2023/08/01 09:08:37;;;;;;;0.10;0.10;;;;;;;19.90;60.03;100036.69;4935877;29;20042;-81
2023/08/01 09:11:04;;;;;;;0.10;0.10;;;;;;;20.01;59.84;100035.88;4938326;28;20087;-82
2023/08/01 09:13:30;;;;;;;0.10;0.10;;;;;;;19.97;59.86;100037.94;4935118;29;20036;-83
2023/08/01 09:15:57;;;;;;;20.00;0.65;;;;;;;20.36;59.76;100036.00;4941779;28;20302;-83
2023/08/01 09:18:23;;;;;;;0.10;0.10;;;;;;;20.39;58.90;100039.41;5004311;28;20029;-82
2023/08/01 09:20:50;;;;;;;0.68;0.68;;;;;;;20.73;59.30;100031.56;4961425;28;20127;-82
2023/08/01 09:23:17;;;;;;;0.20;0.20;;;;;;;20.87;58.79;100025.13;4971140;28;20486;-81
2023/08/01 09:25:51;;;;;;;1.55;1.38;;;;;;;20.94;58.68;100038.00;4980808;28;20028;-82
2023/08/01 09:28:20;;;;;;;0.70;0.70;;;;;;;20.82;57.12;100025.47;4932004;29;20264;-81
2023/08/01 09:33:37;;;;;;;0.10;0.10;;;;;;;20.88;56.20;100040.31;5062521;28;20771;-82
2023/08/01 09:36:05;;;;;;;0.10;0.10;;;;;;;20.85;55.75;100044.94;5032891;28;20030;-81
2023/08/01 09:38:35;;;;;;;0.10;0.10;;;;;;;20.83;55.05;100059.50;5033474;28;20049;-80
2023/08/01 09:41:02;;;;;;;0.20;0.20;;;;;;;20.98;55.08;100052.94;5032845;28;20026;-78
2023/08/01 09:43:37;;;;;;;0.10;0.10;;;;;;;21.22;54.69;100052.03;5032158;28;20029;-83
2023/08/01 09:46:06;;;;;;;0.20;0.20;;;;;;;21.27;53.86;100059.75;5033694;28;20089;-82
2023/08/01 09:48:32;;;;;;;1.45;0.77;;;;;;;21.41;54.45;100059.53;5033481;28;20029;-82
2023/08/01 09:51:15;;;;;;;0.30;0.30;;;;;;;21.50;54.46;100058.81;5031809;28;20447;-83
2023/08/01 09:56:26;;;;;;;1.05;1.05;;;;;;;21.89;52.87;100057.66;5111375;27;20415;-83
2023/08/01 09:58:55;;;;;;;0.10;0.10;;;;;;;22.03;53.11;100048.44;5100478;28;20040;-82
2023/08/01 10:01:23;;;;;;;0.13;0.13;;;;;;;22.00;52.06;100054.94;5110443;28;20055;-82
2023/08/01 10:03:51;;;;;;;0.70;0.70;;;;;;;22.05;52.38;100055.41;5111828;28;20024;-81
2023/08/01 10:06:21;;;;;;;0.10;0.10;;;;;;;22.05;52.68;100068.91;5111345;28;20418;-82
2023/08/01 10:08:49;;;;;;;0.22;0.22;;;;;;;22.09;53.27;100062.31;5109857;28;20040;-83
2023/08/01 10:11:18;;;;;;;0.40;0.40;;;;;;;22.13;53.69;100062.88;5106667;28;20039;-83
2023/08/01 10:13:45;;;;;;;0.00;0.00;;;;;;;22.25;54.11;100056.47;5108161;28;20021;-83
2023/08/01 10:16:13;;;;;;;0.00;0.00;;;;;;;22.32;52.70;100059.56;5102975;28;20088;-81
2023/08/01 10:18:39;;;;;;;0.30;0.30;;;;;;;22.19;50.55;100070.47;5115616;28;20020;-81
2023/08/01 10:21:07;;;;;;;0.32;0.32;;;;;;;22.35;51.96;100063.84;5116432;28;20031;-79
2023/08/01 10:23:34;;;;;;;0.32;0.32;;;;;;;22.35;53.09;100069.25;5131648;28;20039;-80
2023/08/01 10:26:03;;;;;;;0.20;0.20;;;;;;;22.21;52.12;100078.47;5131329;28;20020;-79
2023/08/01 10:28:34;;;;;;;0.80;0.80;;;;;;;22.34;51.26;100068.38;5132315;28;20035;-82
2023/08/01 10:31:16;;;;;;;26.00;1.48;;;;;;;22.22;51.43;100072.94;5131942;28;20028;-79
2023/08/01 10:33:45;;;;;;;0.03;0.03;;;;;;;22.24;52.55;100073.69;5127944;28;20035;-81
2023/08/01 10:36:29;;;;;;;0.10;0.10;;;;;;;22.25;52.31;100079.94;5130680;28;20039;-80
2023/08/01 10:38:57;;;;;;;0.05;0.05;;;;;;;22.08;51.92;100089.38;5126952;28;20032;-82
2023/08/01 10:41:38;;;;;;;1.15;0.98;;;;;;;22.19;51.29;100081.25;5131185;28;20028;-81
2023/08/01 10:46:54;;;;;;;0.00;0.00;;;;;;;22.23;50.17;100082.75;5127472;27;20463;-82
2023/08/01 10:49:38;;;;;;;0.00;0.00;;;;;;;22.26;51.57;100092.44;5094230;28;20036;-83
2023/08/01 10:52:23;;;;;;;0.10;0.10;;;;;;;21.93;53.10;100089.66;5092405;28;20024;-83
2023/08/01 10:57:47;;;;;;;0.30;0.30;;;;;;;21.57;56.41;100096.97;5104918;27;1194128;-83
2023/08/01 11:00:17;;;;;;;0.25;0.25;;;;;;;21.48;55.94;100087.72;5125791;28;20027;-82
2023/08/01 11:02:50;;;;;;;0.57;0.57;;;;;;;21.46;56.77;100091.53;5133340;27;20019;-84
2023/08/01 11:05:17;;;;;;;0.10;0.10;;;;;;;21.33;54.25;100105.94;5108985;28;20367;-84
2023/08/01 11:07:55;;;;;;;0.20;0.20;;;;;;;21.37;54.74;100100.31;5114343;28;20034;-83
2023/08/01 11:10:21;;;;;;;0.10;0.10;;;;;;;21.37;55.03;100105.69;5124057;28;20015;-83
2023/08/01 11:12:47;;;;;;;0.03;0.03;;;;;;;21.34;54.94;100107.63;5111625;28;20036;-82
2023/08/01 11:15:14;;;;;;;0.10;0.10;;;;;;;21.33;54.21;100114.03;5122787;28;20036;-83
2023/08/01 11:17:43;;;;;;;0.20;0.20;;;;;;;21.34;54.30;100107.63;5129205;28;20043;-84
2023/08/01 11:20:11;;;;;;;0.10;0.10;;;;;;;21.42;54.76;100120.56;5110149;27;20179;-83
2023/08/01 11:22:50;;;;;;;0.30;0.30;;;;;;;21.50;54.01;100115.41;5109346;28;20051;-83
2023/08/01 11:25:16;;;;;;;0.10;0.10;;;;;;;21.53;54.21;100130.47;5111615;28;20035;-83
2023/08/01 11:27:43;;;;;;;0.10;0.10;;;;;;;21.30;54.45;100138.50;5114717;28;20046;-83
2023/08/01 11:30:12;;;;;;;0.10;0.10;;;;;;;21.20;55.98;100131.22;5118383;28;20039;-83
2023/08/01 11:32:39;;;;;;;0.20;0.20;;;;;;;20.96;57.47;100132.13;5113599;28;20039;-83
2023/08/01 11:37:39;;;;;;;0.10;0.10;;;;;;;20.47;56.08;100133.91;5046222;28;20157;-82
2023/08/01 11:40:07;;;;;;;0.10;0.10;;;;;;;20.68;56.71;100131.47;5046667;28;20556;-83
2023/08/01 11:42:33;;;;;;;0.20;0.20;;;;;;;20.85;57.46;100122.16;5036502;28;20490;-83
2023/08/01 11:45:15;;;;;;;0.10;0.10;;;;;;;21.22;54.81;100130.16;5034075;28;20029;-83
2023/08/01 11:47:49;;;;;;;0.10;0.10;;;;;;;21.48;53.03;100124.59;5031922;28;20038;-83